100LL.CA
Aviation Fuel Pricing for Canadians
Please upgrade your browser - Tested with IE9, FireFox, Chrome, Safari

Fuel Prices Airport Info Airport List METAR / TAF Kneeboard RSS

Reference Airport: Langley Regional, BC
N 49 06 03   W 122 37 51

Enter a list of
Airport Idents:
Sort Method: As Entered    By Ident   

CYVR
METAR CYVR 272200Z 15013KT 20SM FEW011 SCT018 SCT045 BKN075 OVC100 11/05 A3009 RMK CF1CU2SC1AC2AC2 SLP192
TAF CYVR 272038Z 2721/2824 14012KT P6SM SCT020 BKN060 TEMPO 2721/2801 P6SM -SHRA BKN020 FM280100 12010KT P6SM SCT040 BKN120 FM280700 12008KT 5SM -RA BR FEW008 OVC015 FM281800 14015G25KT 5SM -RA BR SCT008 OVC015 RMK NXT FCST BY 280000Z
CYXX
METAR CYXX 272200Z 21014G19KT 25SM SCT035 BKN053 OVC100 12/05 A3011 RMK CU3SC2AC3 SLP199
TAF AMD CYXX 271814Z 2718/2818 18012G22KT P6SM SCT020 OVC040 TEMPO 2718/2807 5SM -SHRA BR FEW006 OVC020 BECMG 2721/2723 20010KT FM280700 22008KT 5SM -RA BR BKN020 OVC040 RMK NXT FCST BY 280000Z
KBLI
METAR KBLI 272153Z 17009KT 10SM SCT024 OVC046 11/06 A3012 RMK AO2 SLP206 T01060061
TAF KBLI 271720Z 2718/2818 16014KT P6SM VCSH BKN025 BKN040 FM280000 20010KT P6SM SCT030 BKN050 FM280900 18008KT P6SM -RA BKN030 OVC050 FM281200 16014KT P6SM -RA OVC025